createdAt,value
2019-06-08T00:00:56.599Z,73.86
2019-06-08T00:01:56.545Z,73.97
2019-06-08T00:02:56.536Z,74.17
2019-06-08T00:03:56.526Z,73.93
2019-06-08T00:04:56.509Z,73.97
2019-06-08T00:05:56.566Z,74.37
2019-06-08T00:06:56.489Z,74.77
2019-06-08T00:07:56.483Z,74.27
2019-06-08T00:08:56.468Z,74.97
2019-06-08T00:09:56.468Z,75.01
2019-06-08T00:10:56.445Z,75.31
2019-06-08T00:11:56.477Z,75.37
2019-06-08T00:12:56.430Z,76.21
2019-06-08T00:13:56.412Z,75.71
2019-06-08T00:14:56.412Z,75.07
2019-06-08T00:15:56.397Z,76.11
2019-06-08T00:16:56.387Z,76.17
2019-06-08T00:17:59.247Z,76.07
2019-06-08T00:18:56.405Z,75.67
2019-06-08T00:19:56.413Z,75.71
2019-06-08T00:20:56.340Z,75.67
2019-06-08T00:21:56.395Z,76.01
2019-06-08T00:22:56.321Z,76.07
2019-06-08T00:23:56.318Z,75.81
2019-06-08T00:24:56.362Z,75.51
2019-06-08T00:25:56.298Z,75.51
2019-06-08T00:26:56.287Z,76.51
2019-06-08T00:27:56.265Z,75.81
2019-06-08T00:28:56.262Z,76.11
2019-06-08T00:29:56.274Z,76.21
2019-06-08T00:30:56.245Z,76.01
2019-06-08T00:31:56.224Z,76.11
2019-06-08T00:32:56.256Z,76.11
2019-06-08T00:33:56.223Z,75.81
2019-06-08T00:34:56.200Z,76.31
2019-06-08T00:35:56.186Z,75.81
2019-06-08T00:36:56.174Z,76.31
2019-06-08T00:37:56.241Z,75.97
2019-06-08T00:38:56.208Z,75.77
2019-06-08T00:39:56.200Z,75.57
2019-06-08T00:40:56.146Z,75.47
2019-06-08T00:41:56.128Z,75.47
2019-06-08T00:42:56.123Z,75.77
2019-06-08T00:43:56.120Z,75.74
2019-06-08T00:44:56.087Z,75.47
2019-06-08T00:45:56.080Z,75.57
2019-06-08T00:46:56.084Z,75.57
2019-06-08T00:47:56.057Z,75.63
2019-06-08T00:48:56.101Z,75.57
2019-06-08T00:49:56.033Z,75.47
2019-06-08T00:50:56.023Z,75.47
2019-06-08T00:51:56.018Z,75.77
2019-06-08T00:52:56.002Z,75.97
2019-06-08T00:53:56.018Z,75.97
2019-06-08T00:54:55.991Z,75.87
2019-06-08T00:55:55.977Z,76.47
2019-06-08T00:56:55.963Z,76.07
2019-06-08T00:57:55.995Z,75.97
2019-06-08T00:58:55.979Z,75.57
2019-06-08T00:59:55.931Z,75.57
2019-06-08T01:00:55.919Z,75.37
2019-06-08T01:01:55.914Z,75.57
2019-06-08T01:02:55.932Z,75.47
2019-06-08T01:03:55.934Z,75.47
2019-06-08T01:04:55.897Z,75.47
2019-06-08T01:05:55.866Z,75.84
2019-06-08T01:06:55.893Z,75.57
2019-06-08T01:07:55.852Z,76.07
2019-06-08T01:08:55.845Z,76.47
2019-06-08T01:09:55.844Z,76.01
2019-06-08T01:10:55.818Z,76.17
2019-06-08T01:11:55.811Z,75.87
2019-06-08T01:12:55.809Z,76.28
2019-06-08T01:13:55.808Z,76.07
2019-06-08T01:14:55.812Z,75.97
2019-06-08T01:15:55.775Z,75.97
2019-06-08T01:16:55.749Z,76.37
2019-06-08T01:18:02.868Z,75.97
2019-06-08T01:18:56.735Z,76.28
2019-06-08T01:19:55.731Z,76.07
2019-06-08T01:20:55.755Z,75.77
2019-06-08T01:21:55.699Z,76.47
2019-06-08T01:22:55.687Z,76.28
2019-06-08T01:23:55.683Z,76.57
2019-06-08T01:24:55.673Z,76.47
2019-06-08T01:25:55.709Z,76.17
2019-06-08T01:26:55.665Z,76.41
2019-06-08T01:27:55.637Z,76.37
2019-06-08T01:28:55.627Z,76.37
2019-06-08T01:29:55.613Z,76.28
2019-06-08T01:30:55.603Z,76.07
2019-06-08T01:31:55.626Z,76.07
2019-06-08T01:32:55.581Z,76.47
2019-06-08T01:33:55.573Z,76.37
2019-06-08T01:34:55.564Z,76.57
2019-06-08T01:35:55.567Z,76.71
2019-06-08T01:36:55.574Z,76.91
2019-06-08T01:37:55.527Z,76.51
2019-06-08T01:38:55.541Z,76.91
2019-06-08T01:39:55.509Z,77.11
2019-06-08T01:40:55.495Z,77.51
2019-06-08T01:41:55.490Z,77.11
2019-06-08T01:42:55.508Z,77.21
2019-06-08T01:43:55.474Z,77.21
2019-06-08T01:44:55.454Z,77.11
2019-06-08T01:45:55.456Z,77.51
2019-06-08T01:46:55.438Z,77.61
2019-06-08T01:47:55.424Z,77.15
2019-06-08T01:48:55.440Z,77.11
2019-06-08T01:49:55.400Z,76.71
2019-06-08T01:50:55.392Z,76.81
2019-06-08T01:51:55.385Z,76.65
2019-06-08T01:52:55.372Z,76.54
2019-06-08T01:53:55.385Z,76.51
2019-06-08T01:54:55.348Z,76.34
2019-06-08T01:55:55.347Z,76.54
2019-06-08T01:56:55.373Z,75.45
2019-06-08T01:57:55.317Z,75.91
2019-06-08T01:58:55.307Z,74.34
2019-06-08T01:59:55.303Z,74.54
2019-06-08T02:00:55.309Z,74.94
2019-06-08T02:01:55.318Z,74.60
2019-06-08T02:02:55.267Z,73.94
2019-06-08T02:03:55.254Z,72.74
2019-06-08T02:04:55.243Z,72.24
2019-06-08T02:05:55.239Z,72.43
2019-06-08T02:06:55.244Z,72.13
2019-06-08T02:07:55.258Z,72.94
2019-06-08T02:08:55.201Z,72.83
2019-06-08T02:09:55.236Z,73.03
2019-06-08T02:10:55.183Z,72.63
2019-06-08T02:11:55.179Z,73.33
2019-06-08T02:12:55.162Z,71.23
2019-06-08T02:13:55.152Z,70.86
2019-06-08T02:14:55.144Z,70.86
2019-06-08T02:15:55.160Z,71.47
2019-06-08T02:16:55.123Z,70.86
2019-06-08T02:17:55.131Z,70.66
2019-06-08T02:18:55.102Z,70.66
2019-06-08T02:19:55.098Z,70.32
2019-06-08T02:20:55.076Z,70.53
2019-06-08T02:21:55.063Z,70.43
2019-06-08T02:22:55.098Z,70.53
2019-06-08T02:23:55.050Z,70.83
2019-06-08T02:24:55.035Z,70.63
2019-06-08T02:25:55.031Z,71.13
2019-06-08T02:26:55.105Z,70.12
2019-06-08T02:27:55.002Z,69.92
2019-06-08T02:28:54.997Z,69.53
2019-06-08T02:29:54.980Z,69.96
2019-06-08T02:30:54.974Z,69.89
2019-06-08T02:31:55.005Z,70.29
2019-06-08T02:32:54.949Z,70.50
2019-06-08T02:33:54.988Z,70.70
2019-06-08T02:34:54.928Z,70.29
2019-06-08T02:35:54.924Z,70.59
2019-06-08T02:36:54.911Z,69.69
2019-06-08T02:37:54.908Z,69.59
2019-06-08T02:38:54.909Z,69.99
2019-06-08T02:39:54.923Z,70.59
2019-06-08T02:40:54.864Z,69.59
2019-06-08T02:41:54.856Z,70.50
2019-06-08T02:42:54.851Z,70.50
2019-06-08T02:43:54.871Z,70.63
2019-06-08T02:44:54.830Z,70.73
2019-06-08T02:45:54.816Z,71.33
2019-06-08T02:46:54.805Z,70.53
2019-06-08T02:47:54.804Z,70.73
2019-06-08T02:49:04.142Z,70.43
2019-06-08T02:49:55.806Z,70.93
2019-06-08T02:50:54.768Z,70.83
2019-06-08T02:51:54.754Z,70.53
2019-06-08T02:52:54.740Z,69.72
2019-06-08T02:53:54.742Z,69.72
2019-06-08T02:54:54.751Z,70.12
2019-06-08T02:55:54.714Z,71.03
2019-06-08T02:56:54.693Z,69.62
2019-06-08T02:57:54.687Z,69.82
2019-06-08T02:58:54.679Z,69.92
2019-06-08T02:59:54.704Z,69.62
2019-06-08T03:00:54.655Z,69.72
2019-06-08T03:01:54.673Z,69.72
2019-06-08T03:02:54.633Z,69.72
2019-06-08T03:03:54.624Z,70.06
2019-06-08T03:04:54.645Z,70.46
2019-06-08T03:05:54.602Z,70.36
2019-06-08T03:06:54.603Z,69.56
2019-06-08T03:07:54.583Z,69.45
2019-06-08T03:08:54.571Z,69.65
2019-06-08T03:09:54.564Z,68.75
2019-06-08T03:10:54.578Z,69.85
2019-06-08T03:11:54.539Z,68.05
2019-06-08T03:12:54.523Z,67.41
2019-06-08T03:13:54.514Z,67.65
2019-06-08T03:14:54.542Z,68.05
2019-06-08T03:15:54.547Z,67.04
2019-06-08T03:16:54.478Z,67.55
2019-06-08T03:17:54.470Z,67.65
2019-06-08T03:18:54.458Z,67.24
2019-06-08T03:19:54.450Z,67.55
2019-06-08T03:20:54.457Z,68.05
2019-06-08T03:21:54.426Z,67.04
2019-06-08T03:22:54.415Z,67.04
2019-06-08T03:23:54.404Z,67.85
2019-06-08T03:24:54.395Z,67.24
2019-06-08T03:25:54.442Z,66.31
2019-06-08T03:26:54.369Z,65.80
2019-06-08T03:27:54.417Z,65.70
2019-06-08T03:28:54.357Z,66.11
2019-06-08T03:29:54.342Z,65.53
2019-06-08T03:30:55.290Z,65.84
2019-06-08T03:31:56.920Z,66.34
2019-06-08T03:32:56.738Z,65.33
2019-06-08T03:33:56.496Z,65.84
2019-06-08T03:34:56.681Z,65.16
2019-06-08T03:35:57.950Z,65.77
2019-06-08T03:36:57.088Z,64.76
2019-06-08T03:37:54.251Z,64.36
2019-06-08T03:38:54.247Z,64.36
2019-06-08T03:39:54.258Z,64.46
2019-06-08T03:40:54.220Z,64.26
2019-06-08T03:41:54.255Z,65.56
2019-06-08T03:42:55.946Z,65.77
2019-06-08T03:43:54.210Z,64.93
2019-06-08T03:44:54.176Z,64.63
2019-06-08T03:45:54.172Z,64.73
2019-06-08T03:46:54.232Z,65.44
2019-06-08T03:47:54.196Z,68.05
2019-06-08T03:48:54.136Z,69.56
2019-06-08T03:49:57.440Z,68.05
2019-06-08T03:50:54.118Z,66.03
2019-06-08T03:51:54.114Z,68.68
2019-06-08T03:52:54.134Z,69.69
2019-06-08T03:53:54.086Z,67.38
2019-06-08T03:54:54.107Z,68.28
2019-06-08T03:55:54.065Z,67.78
2019-06-08T03:56:54.053Z,67.51
2019-06-08T03:57:54.089Z,68.15
2019-06-08T03:58:54.033Z,69.25
2019-06-08T03:59:54.059Z,69.82
2019-06-08T04:00:54.009Z,69.42
2019-06-08T04:01:54.001Z,69.52
2019-06-08T04:02:54.039Z,68.91
2019-06-08T04:03:53.974Z,70.79
2019-06-08T04:04:53.961Z,71.40
2019-06-08T04:05:53.957Z,72.10
2019-06-08T04:06:53.947Z,70.79
2019-06-08T04:07:53.972Z,68.28
2019-06-08T04:08:53.918Z,67.07
2019-06-08T04:09:53.921Z,66.71
2019-06-08T04:10:53.964Z,67.00
2019-06-08T04:11:53.891Z,68.08
2019-06-08T04:12:53.883Z,66.47
2019-06-08T04:13:53.871Z,66.80
2019-06-08T04:14:53.860Z,67.31
2019-06-08T04:15:53.852Z,66.71
2019-06-08T04:16:53.875Z,67.81
2019-06-08T04:17:53.842Z,67.41
2019-06-08T04:18:53.852Z,68.41
2019-06-08T04:20:09.598Z,67.61
2019-06-08T04:20:54.789Z,67.81
2019-06-08T04:21:53.783Z,68.48
2019-06-08T04:22:53.795Z,68.59
2019-06-08T04:23:53.784Z,69.59
2019-06-08T04:24:53.745Z,69.99
2019-06-08T04:25:53.737Z,70.86
2019-06-08T04:26:53.727Z,71.20
2019-06-08T04:27:53.721Z,70.70
2019-06-08T04:28:53.750Z,68.35
2019-06-08T04:29:53.692Z,66.07
2019-06-08T04:30:53.688Z,66.67
2019-06-08T04:31:53.680Z,67.61
2019-06-08T04:32:53.672Z,67.88
2019-06-08T04:33:53.663Z,68.55
2019-06-08T04:34:53.670Z,67.64
2019-06-08T04:35:53.628Z,66.97
2019-06-08T04:36:53.618Z,65.76
2019-06-08T04:37:53.614Z,66.80
2019-06-08T04:38:53.594Z,65.69
2019-06-08T04:39:53.633Z,66.70
2019-06-08T04:40:53.580Z,65.89
2019-06-08T04:41:53.562Z,66.30
2019-06-08T04:42:53.561Z,66.30
2019-06-08T04:43:53.541Z,67.17
2019-06-08T04:44:53.540Z,67.77
2019-06-08T04:45:53.568Z,65.96
2019-06-08T04:46:53.520Z,66.36
2019-06-08T04:47:53.499Z,65.76
2019-06-08T04:48:53.495Z,65.86
2019-06-08T04:49:53.486Z,66.36
2019-06-08T04:50:53.469Z,66.36
2019-06-08T04:51:53.484Z,66.56
2019-06-08T04:52:53.451Z,65.69
2019-06-08T04:53:53.440Z,66.30
2019-06-08T04:54:53.430Z,67.30
2019-06-08T04:55:53.451Z,69.01
2019-06-08T04:56:53.410Z,67.80
2019-06-08T04:57:53.397Z,66.39
2019-06-08T04:58:53.394Z,66.50
2019-06-08T04:59:53.378Z,66.09
2019-06-08T05:00:53.393Z,66.09
2019-06-08T05:01:53.360Z,66.70
2019-06-08T05:02:53.345Z,65.89
2019-06-08T05:03:53.343Z,65.79
2019-06-08T05:04:53.325Z,65.76
2019-06-08T05:05:53.339Z,65.66
2019-06-08T05:06:53.297Z,65.26
2019-06-08T05:07:53.288Z,64.95
2019-06-08T05:08:53.285Z,65.46
2019-06-08T05:09:53.264Z,65.86
2019-06-08T05:10:53.299Z,64.65
2019-06-08T05:11:53.243Z,64.12
2019-06-08T05:12:53.241Z,64.05
2019-06-08T05:13:53.222Z,64.15
2019-06-08T05:14:53.215Z,64.15
2019-06-08T05:15:53.207Z,64.55
2019-06-08T05:16:53.216Z,64.62
2019-06-08T05:17:53.227Z,64.22
2019-06-08T05:18:53.175Z,64.22
2019-06-08T05:19:53.164Z,64.52
2019-06-08T05:20:53.151Z,63.62
2019-06-08T05:21:53.149Z,64.42
2019-06-08T05:22:53.125Z,63.01
2019-06-08T05:23:58.590Z,63.92
2019-06-08T05:24:54.105Z,64.22
2019-06-08T05:25:53.102Z,63.85
2019-06-08T05:26:53.085Z,64.45
2019-06-08T05:27:53.083Z,65.46
2019-06-08T05:28:53.114Z,64.86
2019-06-08T05:29:53.055Z,64.65
2019-06-08T05:30:53.050Z,65.96
2019-06-08T05:31:53.042Z,63.65
2019-06-08T05:32:53.046Z,64.65
2019-06-08T05:33:53.017Z,63.75
2019-06-08T05:34:53.002Z,64.58
2019-06-08T05:35:52.985Z,63.87
2019-06-08T05:36:52.972Z,64.31
2019-06-08T05:37:52.990Z,64.41
2019-06-08T05:38:53.013Z,64.72
2019-06-08T05:39:52.951Z,64.69
2019-06-08T05:40:52.936Z,66.09
2019-06-08T05:41:52.922Z,64.98
2019-06-08T05:42:53.105Z,64.28
2019-06-08T05:43:52.897Z,62.66
2019-06-08T05:44:52.893Z,63.87
2019-06-08T05:45:52.914Z,64.48
2019-06-08T05:46:52.879Z,64.58
2019-06-08T05:47:52.863Z,64.07
2019-06-08T05:48:52.855Z,64.58
2019-06-08T05:49:52.843Z,63.98
2019-06-08T05:51:03.409Z,63.78
2019-06-08T05:51:53.855Z,63.78
2019-06-08T05:52:52.806Z,63.67
2019-06-08T05:53:52.820Z,64.89
2019-06-08T05:54:52.788Z,63.14
2019-06-08T05:55:52.771Z,63.27
2019-06-08T05:56:52.764Z,63.95
2019-06-08T05:57:52.754Z,63.24
2019-06-08T05:58:52.785Z,62.84
2019-06-08T05:59:52.728Z,63.04
2019-06-08T06:00:52.726Z,62.94
2019-06-08T06:01:52.716Z,61.73
2019-06-08T06:02:52.700Z,61.63
2019-06-08T06:03:52.736Z,62.94
2019-06-08T06:04:53.973Z,61.73
2019-06-08T06:05:52.667Z,62.01
2019-06-08T06:06:52.660Z,61.10
2019-06-08T06:07:52.685Z,60.52
2019-06-08T06:08:52.636Z,61.70
2019-06-08T06:09:52.652Z,61.90
2019-06-08T06:10:52.612Z,60.89
2019-06-08T06:11:52.599Z,60.67
2019-06-08T06:12:52.599Z,61.57
2019-06-08T06:13:52.577Z,60.53
2019-06-08T06:14:52.608Z,59.74
2019-06-08T06:15:52.562Z,58.73
2019-06-08T06:16:52.554Z,57.42
2019-06-08T06:17:52.535Z,57.92
2019-06-08T06:18:52.553Z,57.42
2019-06-08T06:19:52.519Z,56.99
2019-06-08T06:20:52.509Z,57.59
2019-06-08T06:21:52.498Z,56.79
2019-06-08T06:22:52.750Z,56.62
2019-06-08T06:23:52.493Z,57.42
2019-06-08T06:24:52.464Z,56.89
2019-06-08T06:25:52.457Z,57.70
2019-06-08T06:26:52.477Z,57.50
2019-06-08T06:27:52.429Z,56.56
2019-06-08T06:28:52.425Z,56.06
2019-06-08T06:29:52.435Z,55.93
2019-06-08T06:30:52.421Z,55.53
2019-06-08T06:31:52.395Z,54.90
2019-06-08T06:32:52.434Z,55.33
2019-06-08T06:33:52.530Z,55.30
2019-06-08T06:34:52.371Z,54.70
2019-06-08T06:35:52.390Z,54.72
2019-06-08T06:36:52.337Z,54.43
2019-06-08T06:37:52.327Z,54.45
2019-06-08T06:38:52.407Z,55.18
2019-06-08T06:39:52.452Z,55.48
2019-06-08T06:40:52.304Z,55.48
2019-06-08T06:41:52.346Z,55.08
2019-06-08T06:42:52.408Z,54.98
2019-06-08T06:43:52.364Z,53.85
2019-06-08T06:44:52.487Z,53.42
2019-06-08T06:45:52.298Z,53.32
2019-06-08T06:46:52.527Z,52.72
2019-06-08T06:47:52.688Z,53.45
2019-06-08T06:48:52.604Z,53.14
2019-06-08T06:49:52.594Z,53.57
2019-06-08T06:50:52.565Z,53.34
2019-06-08T06:51:52.755Z,53.02
2019-06-08T06:52:52.961Z,53.32
2019-06-08T06:53:53.309Z,52.89
2019-06-08T06:54:53.268Z,51.49
2019-06-08T06:55:53.368Z,51.97
2019-06-08T06:56:52.152Z,51.76
2019-06-08T06:57:53.446Z,51.46
2019-06-08T06:58:52.103Z,49.84
2019-06-08T06:59:52.096Z,50.54
2019-06-08T07:00:52.077Z,50.94
2019-06-08T07:01:55.628Z,51.04
2019-06-08T07:02:53.931Z,50.44
2019-06-08T07:03:52.217Z,50.24
2019-06-08T07:04:52.273Z,51.04
2019-06-08T07:05:52.050Z,50.44
2019-06-08T07:06:52.298Z,51.06
2019-06-08T07:07:52.464Z,51.67
2019-06-08T07:08:52.434Z,50.56
2019-06-08T07:09:52.768Z,51.06
2019-06-08T07:10:53.525Z,51.06
2019-06-08T07:11:52.986Z,51.39
2019-06-08T07:12:52.832Z,51.29
2019-06-08T07:13:52.887Z,52.22
2019-06-08T07:14:53.037Z,52.29
2019-06-08T07:15:55.898Z,53.30
2019-06-08T07:16:54.007Z,52.09
2019-06-08T07:17:53.563Z,51.69
2019-06-08T07:18:52.623Z,51.59
2019-06-08T07:19:52.637Z,51.89
